createdAt,value
2023-02-24T00:00:26.302Z,986.37
2023-02-24T00:01:26.288Z,986.31
2023-02-24T00:02:26.323Z,986.31
2023-02-24T00:03:26.313Z,986.31
2023-02-24T00:04:26.255Z,986.32
2023-02-24T00:05:26.220Z,986.31
2023-02-24T00:06:26.234Z,986.29
2023-02-24T00:07:26.296Z,986.25
2023-02-24T00:08:26.216Z,986.21
2023-02-24T00:09:26.244Z,986.21
2023-02-24T00:10:26.189Z,986.21
2023-02-24T00:11:26.158Z,986.23
2023-02-24T00:12:26.179Z,986.30
2023-02-24T00:13:26.156Z,986.20
2023-02-24T00:14:26.178Z,986.23
2023-02-24T00:15:26.130Z,986.25
2023-02-24T00:16:26.320Z,986.16
2023-02-24T00:17:26.182Z,986.14
2023-02-24T00:18:26.125Z,986.19
2023-02-24T00:19:26.095Z,986.15
2023-02-24T00:20:26.158Z,986.09
2023-02-24T00:21:26.090Z,986.11
2023-02-24T00:22:26.065Z,986.08
2023-02-24T00:23:26.035Z,986.05
2023-02-24T00:24:26.037Z,986.01
2023-02-24T00:25:31.785Z,985.97
2023-02-24T00:26:26.086Z,985.90
2023-02-24T00:27:25.996Z,985.93
2023-02-24T00:28:26.006Z,986.00
2023-02-24T00:29:25.978Z,986.06
2023-02-24T00:30:25.991Z,986.05
2023-02-24T00:31:26.359Z,986.11
2023-02-24T00:32:26.145Z,986.07
2023-02-24T00:33:25.943Z,986.05
2023-02-24T00:34:25.986Z,986.06
2023-02-24T00:35:25.925Z,986.06
2023-02-24T00:36:26.277Z,986.04
2023-02-24T00:37:25.915Z,986.04
2023-02-24T00:38:25.923Z,986.03
2023-02-24T00:39:25.924Z,986.04
2023-02-24T00:40:25.904Z,986.00
2023-02-24T00:41:25.875Z,985.97
2023-02-24T00:42:25.907Z,985.93
2023-02-24T00:43:25.865Z,985.91
2023-02-24T00:44:25.847Z,985.93
2023-02-24T00:45:25.827Z,985.91
2023-02-24T00:46:25.983Z,985.90
2023-02-24T00:47:25.821Z,985.89
2023-02-24T00:48:25.819Z,985.87
2023-02-24T00:49:25.787Z,985.85
2023-02-24T00:50:25.799Z,985.83
2023-02-24T00:51:26.312Z,985.85
2023-02-24T00:52:25.773Z,985.83
2023-02-24T00:53:25.762Z,985.85
2023-02-24T00:54:25.746Z,985.87
2023-02-24T00:55:25.731Z,985.90
2023-02-24T00:56:25.755Z,985.87
2023-02-24T00:57:25.728Z,985.84
2023-02-24T00:58:25.709Z,985.81
2023-02-24T00:59:25.703Z,985.83
2023-02-24T01:00:25.690Z,985.83
2023-02-24T01:01:25.753Z,985.82
2023-02-24T01:02:25.691Z,985.76
2023-02-24T01:03:25.861Z,985.72
2023-02-24T01:04:25.662Z,985.68
2023-02-24T01:05:25.631Z,985.66
2023-02-24T01:06:25.630Z,985.62
2023-02-24T01:07:25.619Z,985.61
2023-02-24T01:08:25.609Z,985.59
2023-02-24T01:09:25.609Z,985.58
2023-02-24T01:10:25.603Z,985.66
2023-02-24T01:11:25.568Z,985.54
2023-02-24T01:12:25.570Z,985.57
2023-02-24T01:13:25.558Z,985.58
2023-02-24T01:14:25.560Z,985.61
2023-02-24T01:15:25.532Z,985.63
2023-02-24T01:16:25.551Z,985.61
2023-02-24T01:17:25.625Z,985.60
2023-02-24T01:18:25.807Z,985.58
2023-02-24T01:19:25.477Z,985.58
2023-02-24T01:20:25.497Z,985.58
2023-02-24T01:21:25.472Z,985.57
2023-02-24T01:22:25.467Z,985.48
2023-02-24T01:23:25.447Z,985.52
2023-02-24T01:24:25.514Z,985.49
2023-02-24T01:25:25.416Z,985.42
2023-02-24T01:26:30.241Z,985.42
2023-02-24T01:27:25.448Z,985.42
2023-02-24T01:28:25.418Z,985.41
2023-02-24T01:29:25.589Z,985.44
2023-02-24T01:30:25.428Z,985.43
2023-02-24T01:31:25.795Z,985.44
2023-02-24T01:32:25.537Z,985.42
2023-02-24T01:33:25.377Z,985.40
2023-02-24T01:34:25.346Z,985.43
2023-02-24T01:35:25.387Z,985.36
2023-02-24T01:36:25.328Z,985.36
2023-02-24T01:37:25.298Z,985.37
2023-02-24T01:38:25.349Z,985.37
2023-02-24T01:39:25.279Z,985.38
2023-02-24T01:40:25.304Z,985.39
2023-02-24T01:41:25.310Z,985.32
2023-02-24T01:42:25.273Z,985.31
2023-02-24T01:43:25.257Z,985.35
2023-02-24T01:44:25.282Z,985.30
2023-02-24T01:45:25.356Z,985.27
2023-02-24T01:46:25.266Z,985.28
2023-02-24T01:47:25.213Z,985.22
2023-02-24T01:48:25.223Z,985.22
2023-02-24T01:49:25.185Z,985.19
2023-02-24T01:50:25.203Z,985.19
2023-02-24T01:51:25.196Z,985.17
2023-02-24T01:52:25.171Z,985.16
2023-02-24T01:53:25.152Z,985.11
2023-02-24T01:54:25.154Z,985.15
2023-02-24T01:55:25.128Z,985.16
2023-02-24T01:56:25.162Z,985.14
2023-02-24T01:57:25.153Z,985.12
2023-02-24T01:58:25.131Z,985.08
2023-02-24T01:59:25.105Z,985.07
2023-02-24T02:00:25.097Z,985.07
2023-02-24T02:01:25.080Z,985.08
2023-02-24T02:02:25.300Z,985.00
2023-02-24T02:03:25.066Z,984.99
2023-02-24T02:04:25.076Z,985.01
2023-02-24T02:05:25.078Z,984.96
2023-02-24T02:06:25.015Z,984.97
2023-02-24T02:07:25.008Z,984.96
2023-02-24T02:08:25.013Z,984.97
2023-02-24T02:09:24.986Z,984.95
2023-02-24T02:10:24.985Z,984.92
2023-02-24T02:11:25.006Z,984.95
2023-02-24T02:12:24.955Z,984.93
2023-02-24T02:13:24.976Z,984.97
2023-02-24T02:14:24.955Z,984.92
2023-02-24T02:15:24.932Z,984.92
2023-02-24T02:16:24.987Z,984.94
2023-02-24T02:17:24.914Z,984.91
2023-02-24T02:18:24.895Z,984.92
2023-02-24T02:19:24.886Z,984.87
2023-02-24T02:20:24.883Z,984.89
2023-02-24T02:21:24.854Z,984.85
2023-02-24T02:22:24.866Z,984.85
2023-02-24T02:23:24.836Z,984.85
2023-02-24T02:24:25.365Z,984.92
2023-02-24T02:25:24.827Z,984.83
2023-02-24T02:26:24.927Z,984.83
2023-02-24T02:27:24.815Z,984.82
2023-02-24T02:28:24.808Z,984.81
2023-02-24T02:29:24.788Z,984.82
2023-02-24T02:30:24.806Z,984.85
2023-02-24T02:31:25.342Z,984.79
2023-02-24T02:32:24.855Z,984.78
2023-02-24T02:33:24.723Z,984.78
2023-02-24T02:34:24.773Z,984.75
2023-02-24T02:35:24.725Z,984.77
2023-02-24T02:36:24.728Z,984.76
2023-02-24T02:37:24.713Z,984.81
2023-02-24T02:38:24.707Z,984.79
2023-02-24T02:39:24.687Z,984.85
2023-02-24T02:40:24.688Z,984.83
2023-02-24T02:41:24.664Z,984.80
2023-02-24T02:42:24.687Z,984.79
2023-02-24T02:43:24.651Z,984.82
2023-02-24T02:44:24.658Z,984.82
2023-02-24T02:45:24.666Z,984.83
2023-02-24T02:46:24.618Z,984.79
2023-02-24T02:47:24.584Z,984.83
2023-02-24T02:48:24.593Z,984.79
2023-02-24T02:49:24.569Z,984.77
2023-02-24T02:50:24.572Z,984.78
2023-02-24T02:51:24.913Z,984.76
2023-02-24T02:52:24.589Z,984.76
2023-02-24T02:53:24.551Z,984.73
2023-02-24T02:54:24.550Z,984.76
2023-02-24T02:55:24.513Z,984.77
2023-02-24T02:56:24.584Z,984.80
2023-02-24T02:57:24.490Z,984.72
2023-02-24T02:58:24.492Z,984.71
2023-02-24T02:59:24.509Z,984.71
2023-02-24T03:00:24.492Z,984.70
2023-02-24T03:01:24.534Z,984.69
2023-02-24T03:02:24.459Z,984.68
2023-02-24T03:03:24.412Z,984.69
2023-02-24T03:04:24.473Z,984.70
2023-02-24T03:05:24.402Z,984.70
2023-02-24T03:06:24.412Z,984.74
2023-02-24T03:07:24.798Z,984.73
2023-02-24T03:08:24.420Z,984.75
2023-02-24T03:09:25.019Z,984.76
2023-02-24T03:10:24.388Z,984.74
2023-02-24T03:11:24.357Z,984.75
2023-02-24T03:12:24.370Z,984.69
2023-02-24T03:13:24.322Z,984.76
2023-02-24T03:14:24.341Z,984.75
2023-02-24T03:15:24.313Z,984.70
2023-02-24T03:16:24.340Z,984.71
2023-02-24T03:17:24.289Z,984.68
2023-02-24T03:18:24.289Z,984.72
2023-02-24T03:19:24.258Z,984.71
2023-02-24T03:20:24.294Z,984.66
2023-02-24T03:21:24.360Z,984.66
2023-02-24T03:22:24.232Z,984.62
2023-02-24T03:23:24.244Z,984.62
2023-02-24T03:24:24.203Z,984.60
2023-02-24T03:25:24.232Z,984.61
2023-02-24T03:26:24.206Z,984.62
2023-02-24T03:27:24.212Z,984.61
2023-02-24T03:28:24.163Z,984.61
2023-02-24T03:29:24.426Z,984.58
2023-02-24T03:30:24.142Z,984.59
2023-02-24T03:31:24.722Z,984.53
2023-02-24T03:32:24.235Z,984.52
2023-02-24T03:33:24.350Z,984.50
2023-02-24T03:34:24.121Z,984.51
2023-02-24T03:35:24.114Z,984.49
2023-02-24T03:36:24.097Z,984.49
2023-02-24T03:37:24.113Z,984.41
2023-02-24T03:38:24.114Z,984.42
2023-02-24T03:39:24.074Z,984.44
2023-02-24T03:40:24.045Z,984.43
2023-02-24T03:41:24.054Z,984.40
2023-02-24T03:42:24.034Z,984.46
2023-02-24T03:43:24.030Z,984.36
2023-02-24T03:44:24.032Z,984.45
2023-02-24T03:45:24.042Z,984.43
2023-02-24T03:46:24.010Z,984.42
2023-02-24T03:47:24.434Z,984.41
2023-02-24T03:48:23.973Z,984.40
2023-02-24T03:49:23.992Z,984.40
2023-02-24T03:50:23.946Z,984.33
2023-02-24T03:51:23.966Z,984.34
2023-02-24T03:52:23.925Z,984.32
2023-02-24T03:53:23.933Z,984.30
2023-02-24T03:54:24.095Z,984.38
2023-02-24T03:55:23.907Z,984.30
2023-02-24T03:56:28.584Z,984.39
2023-02-24T03:57:23.900Z,984.44
2023-02-24T03:58:24.330Z,984.41
2023-02-24T03:59:23.876Z,984.43
2023-02-24T04:00:23.842Z,984.41
2023-02-24T04:01:23.887Z,984.38
2023-02-24T04:02:23.879Z,984.39
2023-02-24T04:03:23.840Z,984.37
2023-02-24T04:04:23.856Z,984.30
2023-02-24T04:05:23.805Z,984.40
2023-02-24T04:06:23.804Z,984.34
2023-02-24T04:07:23.803Z,984.37
2023-02-24T04:09:19.762Z,984.34
2023-02-24T04:10:19.755Z,984.37
2023-02-24T04:11:20.127Z,984.31
2023-02-24T04:12:20.450Z,984.33
2023-02-24T04:13:19.736Z,984.34
2023-02-24T04:14:19.719Z,984.35
2023-02-24T04:15:19.757Z,984.32
2023-02-24T04:16:19.695Z,984.33
2023-02-24T04:17:19.684Z,984.37
2023-02-24T04:18:19.658Z,984.32
2023-02-24T04:19:19.693Z,984.18
2023-02-24T04:20:19.635Z,984.19
2023-02-24T04:21:19.902Z,984.17
2023-02-24T04:22:19.626Z,984.20
2023-02-24T04:23:19.643Z,984.11
2023-02-24T04:24:19.604Z,984.09
2023-02-24T04:25:19.628Z,984.10
2023-02-24T04:26:19.579Z,984.06
2023-02-24T04:27:19.644Z,984.05
2023-02-24T04:28:19.557Z,984.08
2023-02-24T04:29:19.556Z,983.98
2023-02-24T04:30:19.535Z,983.98
2023-02-24T04:31:20.428Z,984.01
2023-02-24T04:32:19.580Z,983.97
2023-02-24T04:33:19.516Z,983.93
2023-02-24T04:34:19.488Z,983.95
2023-02-24T04:35:19.513Z,983.89
2023-02-24T04:36:19.493Z,983.92
2023-02-24T04:37:19.537Z,983.94
2023-02-24T04:38:19.459Z,983.87
2023-02-24T04:39:19.458Z,983.84
2023-02-24T04:40:19.440Z,983.83
2023-02-24T04:41:19.808Z,983.83
2023-02-24T04:42:19.427Z,983.80
2023-02-24T04:43:19.437Z,983.80
2023-02-24T04:44:19.401Z,983.77
2023-02-24T04:45:19.407Z,983.78
2023-02-24T04:46:19.417Z,983.77
2023-02-24T04:47:19.368Z,983.76
2023-02-24T04:48:19.387Z,983.72
2023-02-24T04:49:19.386Z,983.68
2023-02-24T04:50:19.334Z,983.68
2023-02-24T04:51:19.754Z,983.65
2023-02-24T04:52:19.327Z,983.65
2023-02-24T04:53:19.341Z,983.59
2023-02-24T04:54:19.313Z,983.59
2023-02-24T04:55:19.294Z,983.58
2023-02-24T04:56:19.268Z,983.59
2023-02-24T04:57:19.271Z,983.52
2023-02-24T04:58:19.392Z,983.52
2023-02-24T04:59:19.277Z,983.60
2023-02-24T05:00:19.227Z,983.59
2023-02-24T05:01:19.595Z,983.56
2023-02-24T05:02:20.238Z,983.56
2023-02-24T05:03:19.220Z,983.50
2023-02-24T05:04:19.223Z,983.52
2023-02-24T05:05:19.199Z,983.44
2023-02-24T05:06:19.160Z,983.50
2023-02-24T05:07:19.176Z,983.45
2023-02-24T05:08:19.150Z,983.41
2023-02-24T05:09:19.166Z,983.44
2023-02-24T05:10:19.163Z,983.36
2023-02-24T05:11:19.689Z,983.33
2023-02-24T05:12:19.120Z,983.35
2023-02-24T05:13:19.150Z,983.37
2023-02-24T05:14:19.120Z,983.31
2023-02-24T05:15:19.092Z,983.30
2023-02-24T05:16:19.181Z,983.30
2023-02-24T05:17:19.060Z,983.33
2023-02-24T05:18:19.038Z,983.32
2023-02-24T05:19:19.058Z,983.33
2023-02-24T05:20:19.072Z,983.35
2023-02-24T05:21:19.457Z,983.32
2023-02-24T05:22:19.001Z,983.31
2023-02-24T05:23:19.002Z,983.34
2023-02-24T05:24:19.013Z,983.25
2023-02-24T05:25:19.020Z,983.27
2023-02-24T05:26:18.945Z,983.22
2023-02-24T05:27:18.981Z,983.20
2023-02-24T05:28:18.948Z,983.17
2023-02-24T05:29:18.930Z,983.16
2023-02-24T05:30:18.904Z,983.15
2023-02-24T05:31:19.109Z,983.17
2023-02-24T05:32:19.083Z,983.16
2023-02-24T05:33:18.915Z,983.10
2023-02-24T05:34:18.906Z,983.10
2023-02-24T05:35:18.883Z,983.10
2023-02-24T05:36:18.853Z,983.10
2023-02-24T05:37:18.852Z,983.19
2023-02-24T05:38:18.842Z,983.16
2023-02-24T05:39:18.871Z,983.15
2023-02-24T05:40:18.827Z,983.12
2023-02-24T05:41:19.041Z,983.11
2023-02-24T05:42:18.777Z,983.12
2023-02-24T05:43:18.848Z,983.08
2023-02-24T05:44:18.798Z,983.11
2023-02-24T05:45:18.789Z,983.11
2023-02-24T05:46:18.794Z,983.13
2023-02-24T05:47:18.762Z,983.11
2023-02-24T05:48:18.730Z,983.09
2023-02-24T05:49:18.757Z,983.03
2023-02-24T05:50:18.709Z,983.00
2023-02-24T05:51:18.947Z,983.05
2023-02-24T05:52:18.680Z,982.95
2023-02-24T05:53:18.764Z,983.00
2023-02-24T05:54:18.670Z,982.88
2023-02-24T05:55:18.666Z,982.93
2023-02-24T05:56:18.636Z,982.90
2023-02-24T05:57:18.639Z,982.87
2023-02-24T05:58:18.646Z,982.89
2023-02-24T05:59:18.668Z,982.93
2023-02-24T06:00:18.599Z,983.02
2023-02-24T06:01:18.879Z,983.03
2023-02-24T06:02:18.645Z,983.06
2023-02-24T06:03:18.657Z,983.06
2023-02-24T06:04:18.568Z,983.06
2023-02-24T06:05:20.893Z,983.01
2023-02-24T06:06:18.561Z,983.06
2023-02-24T06:07:18.557Z,982.99
2023-02-24T06:08:18.552Z,983.01
2023-02-24T06:09:18.538Z,983.02
2023-02-24T06:10:18.550Z,983.05
2023-02-24T06:11:18.924Z,982.99
2023-02-24T06:12:18.451Z,983.02
2023-02-24T06:13:18.421Z,982.98
2023-02-24T06:14:18.424Z,983.00
2023-02-24T06:15:18.396Z,982.96
2023-02-24T06:16:18.490Z,982.96
2023-02-24T06:17:18.586Z,982.99
2023-02-24T06:18:18.428Z,982.99
2023-02-24T06:19:18.406Z,983.00
2023-02-24T06:20:18.410Z,983.00
2023-02-24T06:21:19.410Z,983.05
2023-02-24T06:22:18.415Z,983.02
2023-02-24T06:23:18.376Z,983.04
2023-02-24T06:24:18.369Z,983.03
2023-02-24T06:25:18.386Z,983.01
2023-02-24T06:26:23.034Z,983.09
2023-02-24T06:27:18.336Z,983.05
2023-02-24T06:28:18.330Z,983.03
2023-02-24T06:29:18.332Z,983.05
2023-02-24T06:30:18.302Z,983.08
2023-02-24T06:31:18.583Z,983.10
2023-02-24T06:32:18.487Z,983.14
2023-02-24T06:33:18.261Z,983.10
2023-02-24T06:34:18.391Z,983.06
2023-02-24T06:35:18.253Z,983.02
2023-02-24T06:36:18.366Z,983.04
2023-02-24T06:37:18.228Z,983.04
2023-02-24T06:38:18.197Z,983.02
2023-02-24T06:39:18.195Z,983.03
2023-02-24T06:40:18.223Z,983.04
2023-02-24T06:41:18.201Z,983.08
2023-02-24T06:42:18.144Z,983.02
2023-02-24T06:43:18.164Z,983.00
2023-02-24T06:44:18.193Z,983.00
2023-02-24T06:45:18.155Z,982.99
2023-02-24T06:46:18.243Z,982.93
2023-02-24T06:47:18.201Z,982.96
2023-02-24T06:48:18.113Z,982.91
2023-02-24T06:49:18.065Z,982.88
2023-02-24T06:50:18.087Z,982.94
2023-02-24T06:51:18.244Z,982.94
2023-02-24T06:52:18.022Z,982.96
2023-02-24T06:53:18.002Z,982.94
2023-02-24T06:54:18.972Z,982.91
2023-02-24T06:55:18.002Z,982.93
2023-02-24T06:56:18.031Z,982.85
2023-02-24T06:57:17.990Z,982.91
2023-02-24T06:58:17.952Z,982.90
2023-02-24T06:59:17.946Z,982.95
2023-02-24T07:00:17.958Z,982.89
2023-02-24T07:01:18.497Z,982.94
2023-02-24T07:02:17.959Z,982.92
2023-02-24T07:03:17.927Z,982.87
2023-02-24T07:04:18.213Z,982.91
2023-02-24T07:05:17.940Z,982.84
2023-02-24T07:06:17.883Z,982.84
2023-02-24T07:07:17.891Z,982.85
2023-02-24T07:08:17.864Z,982.91
2023-02-24T07:09:17.880Z,982.87
2023-02-24T07:10:17.842Z,982.88
2023-02-24T07:11:17.887Z,982.87
2023-02-24T07:12:17.912Z,982.89
2023-02-24T07:13:17.843Z,982.88
2023-02-24T07:14:17.794Z,982.89
2023-02-24T07:15:17.773Z,982.85
2023-02-24T07:16:17.842Z,982.86
2023-02-24T07:17:17.764Z,982.85
2023-02-24T07:18:17.784Z,982.86
2023-02-24T07:19:17.747Z,982.89
2023-02-24T07:20:17.745Z,982.85
2023-02-24T07:21:17.719Z,982.85
2023-02-24T07:22:17.718Z,982.86
2023-02-24T07:23:17.716Z,982.80
2023-02-24T07:24:17.706Z,982.80
2023-02-24T07:25:17.673Z,982.77
2023-02-24T07:26:22.364Z,982.76
2023-02-24T07:27:17.673Z,982.74
2023-02-24T07:28:17.697Z,982.72
2023-02-24T07:29:17.624Z,982.68
2023-02-24T07:30:17.665Z,982.75
2023-02-24T07:31:17.987Z,982.69
2023-02-24T07:32:17.764Z,982.67
2023-02-24T07:33:17.630Z,982.68
2023-02-24T07:34:17.602Z,982.69
2023-02-24T07:35:17.615Z,982.72
2023-02-24T07:36:17.569Z,982.72
2023-02-24T07:37:17.561Z,982.65
2023-02-24T07:38:17.569Z,982.64
2023-02-24T07:39:17.563Z,982.65
2023-02-24T07:40:17.564Z,982.64
2023-02-24T07:41:17.502Z,982.63
2023-02-24T07:42:17.501Z,982.63
2023-02-24T07:43:17.512Z,982.55
2023-02-24T07:44:17.497Z,982.60
2023-02-24T07:45:17.499Z,982.58
2023-02-24T07:46:17.524Z,982.50
2023-02-24T07:47:17.456Z,982.54
2023-02-24T07:48:17.459Z,982.58
2023-02-24T07:49:17.484Z,982.52
2023-02-24T07:50:17.428Z,982.55
2023-02-24T07:51:17.451Z,982.56
2023-02-24T07:52:17.399Z,982.51
2023-02-24T07:53:17.492Z,982.54
2023-02-24T07:54:17.426Z,982.52
2023-02-24T07:55:17.372Z,982.51
2023-02-24T07:56:17.399Z,982.49
2023-02-24T07:57:17.374Z,982.50
2023-02-24T07:58:17.364Z,982.50
2023-02-24T07:59:17.317Z,982.47
2023-02-24T08:00:17.322Z,982.45
2023-02-24T08:01:17.321Z,982.47
2023-02-24T08:02:17.392Z,982.50
2023-02-24T08:03:17.268Z,982.45
2023-02-24T08:04:17.275Z,982.45
2023-02-24T08:05:17.283Z,982.38
2023-02-24T08:06:17.254Z,982.48
2023-02-24T08:07:18.110Z,982.41
2023-02-24T08:08:17.237Z,982.39
2023-02-24T08:09:17.226Z,982.37
2023-02-24T08:10:17.226Z,982.31
2023-02-24T08:11:17.322Z,982.38
2023-02-24T08:12:17.231Z,982.35
2023-02-24T08:13:17.223Z,982.31
2023-02-24T08:14:17.189Z,982.34
2023-02-24T08:15:17.575Z,982.30
2023-02-24T08:16:17.331Z,982.35
2023-02-24T08:17:17.128Z,982.29
2023-02-24T08:18:17.180Z,982.30
2023-02-24T08:19:17.128Z,982.29
2023-02-24T08:20:17.186Z,982.26
2023-02-24T08:21:17.147Z,982.22
2023-02-24T08:22:17.130Z,982.27
2023-02-24T08:23:17.339Z,982.20
2023-02-24T08:24:17.152Z,982.19
2023-02-24T08:25:17.061Z,982.17
2023-02-24T08:26:17.142Z,982.17
2023-02-24T08:27:17.042Z,982.21
2023-02-24T08:28:17.072Z,982.16
2023-02-24T08:29:17.021Z,982.18
2023-02-24T08:30:17.694Z,982.18
2023-02-24T08:31:17.084Z,982.14
2023-02-24T08:32:19.063Z,982.18
2023-02-24T08:33:17.003Z,982.13
2023-02-24T08:34:17.021Z,982.13
2023-02-24T08:35:17.001Z,982.05
2023-02-24T08:36:16.947Z,982.04
2023-02-24T08:37:16.921Z,982.04
2023-02-24T08:38:16.965Z,982.01
2023-02-24T08:39:16.914Z,982.02
2023-02-24T08:40:16.923Z,982.03
2023-02-24T08:41:16.884Z,982.02
2023-02-24T08:42:16.890Z,982.08
2023-02-24T08:43:16.898Z,982.00
2023-02-24T08:44:16.889Z,981.94
2023-02-24T08:45:16.888Z,981.96
2023-02-24T08:46:16.882Z,981.97
2023-02-24T08:47:16.824Z,981.90
2023-02-24T08:48:16.844Z,981.90
2023-02-24T08:49:16.838Z,981.91
2023-02-24T08:50:16.845Z,981.91
2023-02-24T08:51:16.803Z,981.92
2023-02-24T08:52:16.817Z,981.89
2023-02-24T08:53:16.754Z,981.90
2023-02-24T08:54:16.768Z,981.84
2023-02-24T08:55:16.756Z,981.85
2023-02-24T08:56:16.745Z,981.82
2023-02-24T08:57:16.756Z,981.83
2023-02-24T08:58:16.728Z,981.83
2023-02-24T08:59:16.687Z,981.82
2023-02-24T09:00:16.883Z,981.83
2023-02-24T09:01:16.760Z,981.79
2023-02-24T09:02:16.698Z,981.77
2023-02-24T09:03:16.668Z,981.74
2023-02-24T09:04:17.660Z,981.72
2023-02-24T09:05:16.669Z,981.70
2023-02-24T09:06:16.667Z,981.72
2023-02-24T09:07:16.631Z,981.70
2023-02-24T09:08:16.631Z,981.67
2023-02-24T09:10:13.320Z,981.67
2023-02-24T09:11:13.308Z,981.72
2023-02-24T09:12:13.311Z,981.65
2023-02-24T09:13:13.281Z,981.63
2023-02-24T09:14:26.188Z,981.66
2023-02-24T09:15:14.290Z,981.62
2023-02-24T09:16:13.269Z,981.61
2023-02-24T09:17:13.256Z,981.60
2023-02-24T09:18:13.217Z,981.59
2023-02-24T09:19:13.207Z,981.60
2023-02-24T09:20:13.187Z,981.57
2023-02-24T09:21:13.204Z,981.60
2023-02-24T09:22:20.795Z,981.58
2023-02-24T09:23:14.197Z,981.57
2023-02-24T09:24:14.967Z,981.53
2023-02-24T09:25:13.166Z,981.52
2023-02-24T09:26:13.136Z,981.51
2023-02-24T09:27:13.144Z,981.51
2023-02-24T09:28:13.149Z,981.48
2023-02-24T09:29:13.134Z,981.50
2023-02-24T09:30:13.187Z,981.50
2023-02-24T09:31:13.228Z,981.50
2023-02-24T09:32:13.211Z,981.47
2023-02-24T09:33:13.175Z,981.47
2023-02-24T09:34:13.046Z,981.48
2023-02-24T09:35:13.045Z,981.46
2023-02-24T09:36:13.235Z,981.49
2023-02-24T09:37:13.014Z,981.42
2023-02-24T09:38:13.015Z,981.38
2023-02-24T09:39:13.000Z,981.39
2023-02-24T09:40:12.996Z,981.36
2023-02-24T09:41:18.928Z,981.38
2023-02-24T09:42:13.957Z,981.33
2023-02-24T09:43:12.957Z,981.30
2023-02-24T09:44:12.925Z,981.35
2023-02-24T09:45:12.936Z,981.28
2023-02-24T09:46:13.007Z,981.27
2023-02-24T09:47:13.110Z,981.30
2023-02-24T09:48:12.893Z,981.29
2023-02-24T09:49:12.931Z,981.26
2023-02-24T09:50:12.886Z,981.29
2023-02-24T09:51:12.886Z,981.29
2023-02-24T09:52:12.856Z,981.25
2023-02-24T09:53:12.905Z,981.28
2023-02-24T09:54:12.848Z,981.23
2023-02-24T09:55:12.854Z,981.27
2023-02-24T09:56:12.804Z,981.24
2023-02-24T09:57:12.855Z,981.15
2023-02-24T09:58:12.776Z,981.18
2023-02-24T09:59:12.874Z,981.15
2023-02-24T10:00:12.757Z,981.17
2023-02-24T10:01:12.802Z,981.15
2023-02-24T10:02:12.778Z,981.13
2023-02-24T10:03:12.764Z,981.03
2023-02-24T10:04:20.701Z,981.03
2023-02-24T10:05:13.738Z,981.06
2023-02-24T10:06:12.713Z,980.99
2023-02-24T10:07:12.830Z,980.97
2023-02-24T10:08:12.693Z,980.97
2023-02-24T10:09:12.708Z,980.91
2023-02-24T10:10:12.709Z,980.88
2023-02-24T10:11:12.659Z,980.92
2023-02-24T10:12:12.647Z,980.88
2023-02-24T10:13:12.670Z,980.89
2023-02-24T10:14:12.636Z,980.89
2023-02-24T10:15:12.635Z,980.89
2023-02-24T10:16:12.611Z,980.88
2023-02-24T10:17:12.587Z,980.93
2023-02-24T10:18:12.600Z,980.81
2023-02-24T10:19:12.582Z,980.83
2023-02-24T10:20:12.571Z,980.86
2023-02-24T10:21:12.643Z,980.80
2023-02-24T10:22:12.530Z,980.80
2023-02-24T10:23:12.540Z,980.75
2023-02-24T10:24:12.540Z,980.77
2023-02-24T10:25:12.527Z,980.78
2023-02-24T10:26:12.521Z,980.71
2023-02-24T10:27:16.689Z,980.68
2023-02-24T10:28:12.486Z,980.69
2023-02-24T10:29:12.478Z,980.67
2023-02-24T10:30:12.496Z,980.59
2023-02-24T10:31:12.602Z,980.59
2023-02-24T10:32:12.669Z,980.58
2023-02-24T10:33:12.468Z,980.52
2023-02-24T10:34:12.409Z,980.58
2023-02-24T10:35:12.426Z,980.53
2023-02-24T10:36:12.581Z,980.51
2023-02-24T10:37:26.216Z,980.47
2023-02-24T10:38:13.400Z,980.49
2023-02-24T10:39:12.383Z,980.41
2023-02-24T10:40:13.314Z,980.43
2023-02-24T10:41:12.408Z,980.31
2023-02-24T10:42:12.375Z,980.36
2023-02-24T10:43:12.336Z,980.38
2023-02-24T10:44:12.394Z,980.35
2023-02-24T10:45:17.189Z,980.34
2023-02-24T10:46:14.318Z,980.25
2023-02-24T10:47:12.391Z,980.25
2023-02-24T10:48:15.472Z,980.23
2023-02-24T10:49:12.259Z,980.12
2023-02-24T10:50:12.305Z,980.16
2023-02-24T10:51:12.236Z,980.11
2023-02-24T10:52:12.389Z,980.05
2023-02-24T10:53:12.241Z,980.05
2023-02-24T10:54:12.229Z,980.02
2023-02-24T10:55:12.200Z,979.99
2023-02-24T10:56:12.191Z,979.95
2023-02-24T10:57:12.193Z,979.93
2023-02-24T10:58:12.200Z,979.98
2023-02-24T10:59:12.172Z,979.87
2023-02-24T11:00:12.180Z,979.87
2023-02-24T11:01:12.173Z,979.85
2023-02-24T11:02:12.179Z,979.86
2023-02-24T11:03:13.008Z,979.84
2023-02-24T11:04:12.180Z,979.82
2023-02-24T11:05:12.102Z,979.82
2023-02-24T11:06:12.121Z,979.76
2023-02-24T11:07:12.142Z,979.76
2023-02-24T11:08:12.065Z,979.80
2023-02-24T11:09:12.085Z,979.77
2023-02-24T11:10:12.086Z,979.73
2023-02-24T11:11:12.071Z,979.74
2023-02-24T11:12:12.048Z,979.69
2023-02-24T11:13:12.014Z,979.72
2023-02-24T11:14:12.005Z,979.63
2023-02-24T11:15:12.021Z,979.65
2023-02-24T11:16:12.090Z,979.63
2023-02-24T11:17:11.983Z,979.61
2023-02-24T11:18:12.012Z,979.61
2023-02-24T11:19:12.032Z,979.52
2023-02-24T11:20:12.913Z,979.57
2023-02-24T11:21:11.924Z,979.60
2023-02-24T11:22:11.937Z,979.49
2023-02-24T11:23:11.904Z,979.45
2023-02-24T11:24:12.892Z,979.45
2023-02-24T11:25:11.902Z,979.39
2023-02-24T11:26:11.949Z,979.39
2023-02-24T11:27:11.858Z,979.37
2023-02-24T11:28:11.869Z,979.31
2023-02-24T11:29:11.844Z,979.31
2023-02-24T11:30:11.854Z,979.31
2023-02-24T11:31:11.992Z,979.30
2023-02-24T11:32:15.119Z,979.27
2023-02-24T11:33:11.820Z,979.25
2023-02-24T11:34:11.884Z,979.21
2023-02-24T11:35:11.828Z,979.21
2023-02-24T11:36:12.010Z,979.20
2023-02-24T11:37:11.796Z,979.16
2023-02-24T11:38:11.796Z,979.18
2023-02-24T11:39:18.986Z,979.09
2023-02-24T11:40:12.755Z,979.18
2023-02-24T11:41:11.847Z,979.09
2023-02-24T11:42:11.740Z,979.13
2023-02-24T11:43:11.742Z,979.13
2023-02-24T11:44:14.593Z,979.15
2023-02-24T11:45:11.689Z,979.09
2023-02-24T11:46:11.808Z,979.05
2023-02-24T11:47:11.672Z,979.03
2023-02-24T11:48:11.703Z,979.07
2023-02-24T11:49:11.654Z,978.98
2023-02-24T11:50:11.667Z,978.97
2023-02-24T11:51:11.617Z,978.92
2023-02-24T11:52:11.625Z,978.89
2023-02-24T11:53:11.617Z,978.84
2023-02-24T11:54:11.612Z,978.84
2023-02-24T11:55:11.600Z,978.84
2023-02-24T11:56:11.608Z,978.78
2023-02-24T11:57:11.568Z,978.81
2023-02-24T11:58:11.580Z,978.73
2023-02-24T11:59:11.570Z,978.73
2023-02-24T12:00:11.566Z,978.74
2023-02-24T12:01:11.521Z,978.69
2023-02-24T12:02:11.553Z,978.74
2023-02-24T12:03:11.590Z,978.66
2023-02-24T12:04:11.510Z,978.66
2023-02-24T12:05:11.468Z,978.70
2023-02-24T12:06:11.531Z,978.57
2023-02-24T12:07:11.470Z,978.56
2023-02-24T12:08:11.489Z,978.56
2023-02-24T12:09:11.428Z,978.48
2023-02-24T12:10:17.160Z,978.55
2023-02-24T12:11:12.513Z,978.52
2023-02-24T12:12:13.598Z,978.50
2023-02-24T12:13:11.410Z,978.53
2023-02-24T12:14:11.452Z,978.51
2023-02-24T12:15:11.384Z,978.55
2023-02-24T12:16:11.465Z,978.55
2023-02-24T12:17:11.350Z,978.52
2023-02-24T12:18:13.420Z,978.51
2023-02-24T12:19:11.338Z,978.45
2023-02-24T12:20:11.328Z,978.45
2023-02-24T12:21:11.337Z,978.37
2023-02-24T12:22:11.338Z,978.40
2023-02-24T12:23:11.318Z,978.36
2023-02-24T12:24:11.298Z,978.36
2023-02-24T12:25:11.280Z,978.34
2023-02-24T12:26:11.319Z,978.40
2023-02-24T12:27:11.287Z,978.49
2023-02-24T12:28:11.304Z,978.42
2023-02-24T12:29:11.230Z,978.40
2023-02-24T12:30:11.247Z,978.37